createdAt,value
2017-01-09T00:00:37.902Z,0
2017-01-09T00:01:46.869Z,0
2017-01-09T00:02:55.865Z,0
2017-01-09T00:04:04.833Z,0
2017-01-09T00:05:13.823Z,0
2017-01-09T00:06:22.791Z,0
2017-01-09T00:07:31.764Z,0
2017-01-09T00:08:40.742Z,0
2017-01-09T00:09:49.711Z,0
2017-01-09T00:10:58.696Z,0
2017-01-09T00:12:07.659Z,0
2017-01-09T00:13:16.644Z,0
2017-01-09T00:14:25.620Z,0
2017-01-09T00:15:34.597Z,0
2017-01-09T00:16:43.581Z,0
2017-01-09T00:17:52.557Z,0
2017-01-09T00:19:01.537Z,0
2017-01-09T00:20:10.524Z,0
2017-01-09T00:21:19.497Z,0
2017-01-09T00:22:28.462Z,0
2017-01-09T00:23:37.438Z,0
2017-01-09T00:24:46.517Z,0
2017-01-09T00:25:55.485Z,0
2017-01-09T00:27:04.490Z,0
2017-01-09T00:28:13.454Z,0
2017-01-09T00:29:22.424Z,0
2017-01-09T00:30:31.411Z,0
2017-01-09T00:31:40.382Z,0
2017-01-09T00:32:49.365Z,0
2017-01-09T00:33:58.338Z,0
2017-01-09T00:35:07.307Z,0
2017-01-09T00:36:16.273Z,0
2017-01-09T00:37:25.248Z,0
2017-01-09T00:38:34.222Z,0
2017-01-09T00:39:43.200Z,0
2017-01-09T00:40:52.180Z,0
2017-01-09T00:42:01.153Z,0
2017-01-09T00:43:10.119Z,0
2017-01-09T00:44:19.111Z,0
2017-01-09T00:45:28.083Z,0
2017-01-09T00:46:37.060Z,0
2017-01-09T00:47:46.032Z,0
2017-01-09T00:48:55.003Z,0
2017-01-09T00:50:03.988Z,0
2017-01-09T00:51:12.973Z,0
2017-01-09T00:52:21.960Z,0
2017-01-09T00:53:30.929Z,0
2017-01-09T00:54:39.887Z,0
2017-01-09T00:55:48.872Z,0
2017-01-09T00:56:57.832Z,0
2017-01-09T00:58:06.824Z,0
2017-01-09T00:59:15.796Z,0
2017-01-09T01:00:24.776Z,0
2017-01-09T01:01:33.751Z,0
2017-01-09T01:02:42.738Z,0
2017-01-09T01:03:51.714Z,0
2017-01-09T01:05:00.686Z,0
2017-01-09T01:06:09.685Z,0
2017-01-09T01:07:18.683Z,0
2017-01-09T01:08:27.689Z,0
2017-01-09T01:09:36.658Z,0
2017-01-09T01:10:45.628Z,0
2017-01-09T01:11:54.601Z,0
2017-01-09T01:13:03.578Z,0
2017-01-09T01:14:12.577Z,0
2017-01-09T01:15:21.556Z,0
2017-01-09T01:16:30.524Z,0
2017-01-09T01:17:39.506Z,0
2017-01-09T01:18:48.477Z,0
2017-01-09T01:19:57.464Z,0
2017-01-09T01:21:06.436Z,0
2017-01-09T01:22:15.418Z,0
2017-01-09T01:23:24.386Z,0
2017-01-09T01:24:33.368Z,0
2017-01-09T01:25:42.329Z,0
2017-01-09T01:26:51.303Z,0
2017-01-09T01:28:00.288Z,0
2017-01-09T01:29:09.261Z,0
2017-01-09T01:30:18.245Z,0
2017-01-09T01:31:27.263Z,0
2017-01-09T01:32:36.281Z,0
2017-01-09T01:33:45.260Z,0
2017-01-09T01:34:54.234Z,0
2017-01-09T01:36:03.213Z,0
2017-01-09T01:37:12.196Z,0
2017-01-09T01:38:21.175Z,0
2017-01-09T01:39:30.137Z,0
2017-01-09T01:40:39.120Z,0
2017-01-09T01:41:48.087Z,0
2017-01-09T01:42:57.063Z,0
2017-01-09T01:44:06.037Z,0
2017-01-09T01:45:15.018Z,0
2017-01-09T01:46:23.997Z,0
2017-01-09T01:47:32.969Z,0
2017-01-09T01:48:41.941Z,0
2017-01-09T01:49:50.903Z,0
2017-01-09T01:50:59.880Z,0
2017-01-09T01:52:08.862Z,0
2017-01-09T01:53:17.837Z,0
2017-01-09T01:54:26.823Z,0
2017-01-09T01:55:35.784Z,0
2017-01-09T01:56:44.751Z,0
2017-01-09T01:57:53.759Z,0
2017-01-09T01:59:02.743Z,0
2017-01-09T02:00:11.704Z,0
2017-01-09T02:01:20.666Z,0
2017-01-09T02:02:29.640Z,0
2017-01-09T02:03:38.611Z,0
2017-01-09T02:04:47.603Z,0
2017-01-09T02:05:56.577Z,0
2017-01-09T02:07:05.555Z,0
2017-01-09T02:08:14.536Z,0
2017-01-09T02:09:23.516Z,0
2017-01-09T02:10:32.481Z,0
2017-01-09T02:11:41.460Z,0
2017-01-09T02:12:50.467Z,0
2017-01-09T02:13:59.430Z,0
2017-01-09T02:15:08.409Z,0
2017-01-09T02:16:17.375Z,0
2017-01-09T02:17:26.385Z,0
2017-01-09T02:18:35.360Z,0
2017-01-09T02:19:44.345Z,0
2017-01-09T02:20:53.313Z,0
2017-01-09T02:22:02.288Z,0
2017-01-09T02:23:11.263Z,0
2017-01-09T02:24:20.237Z,0
2017-01-09T02:25:29.207Z,0
2017-01-09T02:26:38.193Z,0
2017-01-09T02:27:47.171Z,0
2017-01-09T02:28:56.136Z,0
2017-01-09T02:30:05.106Z,0
2017-01-09T02:31:14.075Z,0
2017-01-09T02:32:23.058Z,0
2017-01-09T02:33:32.051Z,0
2017-01-09T02:34:41.018Z,0
2017-01-09T02:35:49.979Z,0
2017-01-09T02:36:58.945Z,0
2017-01-09T02:38:07.915Z,0
2017-01-09T02:39:16.887Z,0
2017-01-09T02:40:25.858Z,0
2017-01-09T02:41:34.823Z,0
2017-01-09T02:42:43.791Z,0
2017-01-09T02:43:52.789Z,0
2017-01-09T02:45:01.766Z,0
2017-01-09T02:46:10.742Z,0
2017-01-09T02:47:19.720Z,0
2017-01-09T02:48:28.695Z,0
2017-01-09T02:49:37.663Z,0
2017-01-09T02:50:46.629Z,0
2017-01-09T02:51:55.624Z,0
2017-01-09T02:53:04.595Z,0
2017-01-09T02:54:13.560Z,0
2017-01-09T02:55:22.536Z,0
2017-01-09T02:56:31.516Z,0
2017-01-09T02:57:40.486Z,0
2017-01-09T02:58:49.461Z,0
2017-01-09T02:59:58.450Z,0
2017-01-09T03:01:07.455Z,0
2017-01-09T03:02:16.420Z,0
2017-01-09T03:03:25.382Z,0
2017-01-09T03:04:34.367Z,0
2017-01-09T03:05:43.335Z,0
2017-01-09T03:06:52.297Z,0
2017-01-09T03:08:01.355Z,0
2017-01-09T03:09:10.335Z,0
2017-01-09T03:10:19.298Z,0
2017-01-09T03:11:28.272Z,0
2017-01-09T03:12:37.282Z,0
2017-01-09T03:13:46.251Z,0
2017-01-09T03:14:55.227Z,0
2017-01-09T03:16:04.191Z,0
2017-01-09T03:17:13.195Z,0
2017-01-09T03:18:22.171Z,0
2017-01-09T03:19:31.147Z,0
2017-01-09T03:20:40.123Z,0
2017-01-09T03:21:49.098Z,0
2017-01-09T03:22:58.073Z,0
2017-01-09T03:24:07.041Z,0
2017-01-09T03:25:16.020Z,0
2017-01-09T03:26:24.994Z,0
2017-01-09T03:27:33.968Z,0
2017-01-09T03:28:42.939Z,0
2017-01-09T03:29:51.916Z,0
2017-01-09T03:31:00.890Z,0
2017-01-09T03:32:09.865Z,0
2017-01-09T03:33:18.840Z,0
2017-01-09T03:34:27.860Z,0
2017-01-09T03:35:36.868Z,0
2017-01-09T03:36:45.839Z,0
2017-01-09T03:37:54.809Z,0
2017-01-09T03:39:03.777Z,0
2017-01-09T03:40:12.740Z,0
2017-01-09T03:41:21.719Z,0
2017-01-09T03:42:30.707Z,0
2017-01-09T03:43:39.677Z,0
2017-01-09T03:44:48.653Z,0
2017-01-09T03:45:57.623Z,0
2017-01-09T03:47:06.647Z,0
2017-01-09T03:48:15.658Z,0
2017-01-09T03:49:24.642Z,0
2017-01-09T03:50:33.611Z,0
2017-01-09T03:51:42.572Z,0
2017-01-09T03:52:51.548Z,0
2017-01-09T03:54:00.522Z,0
2017-01-09T03:55:09.505Z,0
2017-01-09T03:56:18.480Z,0
2017-01-09T03:57:27.456Z,0
2017-01-09T03:58:36.433Z,0
2017-01-09T03:59:45.449Z,0
2017-01-09T04:00:54.416Z,0
2017-01-09T04:02:03.399Z,0
2017-01-09T04:03:12.388Z,0
2017-01-09T04:04:21.355Z,0
2017-01-09T04:05:30.334Z,0
2017-01-09T04:06:39.297Z,0
2017-01-09T04:07:48.271Z,0
2017-01-09T04:08:57.239Z,0
2017-01-09T04:10:06.222Z,0
2017-01-09T04:11:15.193Z,0
2017-01-09T04:12:24.158Z,0
2017-01-09T04:13:33.121Z,0
2017-01-09T04:14:42.094Z,0
2017-01-09T04:15:51.068Z,0
2017-01-09T04:17:00.035Z,0
2017-01-09T04:18:09.014Z,0
2017-01-09T04:19:17.982Z,0
2017-01-09T04:20:26.951Z,0
2017-01-09T04:21:35.923Z,0
2017-01-09T04:22:44.899Z,0
2017-01-09T04:23:53.878Z,0
2017-01-09T04:25:02.844Z,0
2017-01-09T04:26:12.218Z,0
2017-01-09T04:27:21.184Z,0
2017-01-09T04:28:30.156Z,0
2017-01-09T04:29:39.134Z,0
2017-01-09T04:30:48.111Z,0
2017-01-09T04:31:57.073Z,0
2017-01-09T04:33:06.042Z,0
2017-01-09T04:34:15.016Z,0
2017-01-09T04:35:23.991Z,0
2017-01-09T04:36:32.962Z,0
2017-01-09T04:37:41.933Z,0
2017-01-09T04:38:50.925Z,0
2017-01-09T04:40:00.129Z,0
2017-01-09T04:41:09.109Z,0
2017-01-09T04:42:18.072Z,0
2017-01-09T04:43:27.034Z,0
2017-01-09T04:44:36.006Z,0
2017-01-09T04:45:44.981Z,0
2017-01-09T04:46:53.967Z,0
2017-01-09T04:48:02.933Z,0
2017-01-09T04:49:11.919Z,0
2017-01-09T04:50:20.900Z,0
2017-01-09T04:51:29.862Z,0
2017-01-09T04:52:38.831Z,0
2017-01-09T04:53:47.786Z,0
2017-01-09T04:54:56.781Z,0
2017-01-09T04:56:05.750Z,0
2017-01-09T04:57:14.722Z,0
2017-01-09T04:58:23.705Z,0
2017-01-09T04:59:32.682Z,0
2017-01-09T05:00:41.644Z,0
2017-01-09T05:01:50.620Z,0
2017-01-09T05:02:59.599Z,0
2017-01-09T05:04:08.558Z,0
2017-01-09T05:05:17.538Z,0
2017-01-09T05:06:26.499Z,0
2017-01-09T05:07:35.480Z,0
2017-01-09T05:08:44.458Z,0
2017-01-09T05:09:53.436Z,0
2017-01-09T05:11:02.411Z,0
2017-01-09T05:12:11.382Z,0
2017-01-09T05:13:20.353Z,0
2017-01-09T05:14:29.320Z,0
2017-01-09T05:15:38.297Z,0
2017-01-09T05:16:47.274Z,0
2017-01-09T05:17:56.240Z,0
2017-01-09T05:19:05.215Z,0
2017-01-09T05:20:14.189Z,0
2017-01-09T05:21:23.204Z,0
2017-01-09T05:22:32.166Z,0
2017-01-09T05:23:41.142Z,0
2017-01-09T05:24:50.114Z,0
2017-01-09T05:25:59.089Z,0
2017-01-09T05:27:08.068Z,0
2017-01-09T05:28:17.061Z,0
2017-01-09T05:29:26.037Z,0
2017-01-09T05:30:35.025Z,0
2017-01-09T05:31:43.992Z,0
2017-01-09T05:32:52.967Z,0
2017-01-09T05:34:01.927Z,0
2017-01-09T05:35:10.907Z,0
2017-01-09T05:36:19.873Z,0
2017-01-09T05:37:29.562Z,0
2017-01-09T05:38:38.609Z,0
2017-01-09T05:39:47.593Z,0
2017-01-09T05:40:56.975Z,0
2017-01-09T05:42:05.964Z,0
2017-01-09T05:43:15.119Z,0
2017-01-09T05:44:24.096Z,0
2017-01-09T05:45:33.189Z,0
2017-01-09T05:46:42.690Z,0
2017-01-09T05:47:52.000Z,0
2017-01-09T05:49:00.989Z,0
2017-01-09T05:50:09.977Z,0
2017-01-09T05:51:18.944Z,0
2017-01-09T05:52:27.921Z,0
2017-01-09T05:53:36.890Z,0
2017-01-09T05:54:45.857Z,0
2017-01-09T05:55:54.832Z,0
2017-01-09T05:57:03.813Z,0
2017-01-09T05:58:12.787Z,0
2017-01-09T05:59:21.781Z,0
2017-01-09T06:00:30.754Z,0
2017-01-09T06:01:39.733Z,0
2017-01-09T06:02:48.706Z,0
2017-01-09T06:03:57.672Z,0
2017-01-09T06:05:06.641Z,0
2017-01-09T06:06:15.620Z,0
2017-01-09T06:07:24.596Z,0
2017-01-09T06:08:33.579Z,0
2017-01-09T06:09:42.549Z,0
2017-01-09T06:10:51.516Z,0
2017-01-09T06:12:00.487Z,0
2017-01-09T06:13:09.460Z,0
2017-01-09T06:14:18.448Z,0
2017-01-09T06:15:27.413Z,0
2017-01-09T06:16:36.383Z,0
2017-01-09T06:17:45.369Z,0
2017-01-09T06:18:54.339Z,0
2017-01-09T06:20:03.311Z,0
2017-01-09T06:21:12.288Z,0
2017-01-09T06:22:21.250Z,0
2017-01-09T06:23:30.212Z,0
2017-01-09T06:24:39.211Z,0
2017-01-09T06:25:48.189Z,0
2017-01-09T06:26:57.166Z,0
2017-01-09T06:28:06.137Z,0
2017-01-09T06:29:15.117Z,0
2017-01-09T06:30:24.092Z,0
2017-01-09T06:31:33.065Z,0
2017-01-09T06:32:42.050Z,0
2017-01-09T06:33:51.017Z,0
2017-01-09T06:34:59.998Z,0
2017-01-09T06:36:08.968Z,0
2017-01-09T06:37:17.930Z,0
2017-01-09T06:38:26.905Z,0
2017-01-09T06:39:35.893Z,0
2017-01-09T06:40:44.872Z,0
2017-01-09T06:41:53.860Z,0
2017-01-09T06:43:02.827Z,0
2017-01-09T06:44:11.785Z,0
2017-01-09T06:45:20.773Z,0
2017-01-09T06:46:29.749Z,0
2017-01-09T06:47:38.723Z,0
2017-01-09T06:48:47.698Z,0
2017-01-09T06:49:56.670Z,0
2017-01-09T06:51:05.646Z,0
2017-01-09T06:52:14.617Z,0
2017-01-09T06:53:23.598Z,0
2017-01-09T06:54:32.560Z,4
2017-01-09T06:55:41.527Z,4
2017-01-09T06:56:50.505Z,0
2017-01-09T06:57:59.487Z,0
2017-01-09T06:59:08.473Z,0
2017-01-09T07:00:17.479Z,4
2017-01-09T07:01:26.437Z,4
2017-01-09T07:02:35.430Z,4
2017-01-09T07:03:44.405Z,4
2017-01-09T07:04:53.367Z,8
2017-01-09T07:06:02.337Z,4
2017-01-09T07:07:11.319Z,8
2017-01-09T07:08:20.290Z,8
2017-01-09T07:09:29.270Z,8
2017-01-09T07:10:38.242Z,8
2017-01-09T07:11:47.218Z,12
2017-01-09T07:12:56.187Z,8
2017-01-09T07:14:05.168Z,12
2017-01-09T07:15:14.145Z,12
2017-01-09T07:16:23.120Z,12
2017-01-09T07:17:32.134Z,16
2017-01-09T07:18:41.107Z,16
2017-01-09T07:19:50.269Z,20
2017-01-09T07:20:59.482Z,16
2017-01-09T07:22:08.456Z,20
2017-01-09T07:23:17.601Z,24
2017-01-09T07:24:26.868Z,20
2017-01-09T07:25:35.873Z,24
2017-01-09T07:26:44.858Z,24
2017-01-09T07:27:53.868Z,28
2017-01-09T07:29:02.830Z,32
2017-01-09T07:30:13.025Z,32
2017-01-09T07:31:24.030Z,36
2017-01-09T07:32:33.763Z,36
2017-01-09T07:33:44.708Z,36
2017-01-09T07:34:53.689Z,40
2017-01-09T07:36:02.679Z,40
2017-01-09T07:37:12.667Z,44
2017-01-09T07:38:21.633Z,44
2017-01-09T07:39:30.600Z,48
2017-01-09T07:40:39.649Z,48
2017-01-09T07:41:48.650Z,56
2017-01-09T07:42:57.725Z,56
2017-01-09T07:44:06.706Z,60
2017-01-09T07:45:15.677Z,64
2017-01-09T07:46:24.657Z,60
2017-01-09T07:47:33.629Z,60
2017-01-09T07:48:42.610Z,64
2017-01-09T07:49:51.584Z,68
2017-01-09T07:51:00.558Z,72
2017-01-09T07:52:09.536Z,76
2017-01-09T07:53:18.536Z,80
2017-01-09T07:54:27.550Z,80
2017-01-09T07:55:36.672Z,84
2017-01-09T07:56:49.779Z,80
2017-01-09T07:57:58.774Z,88
2017-01-09T07:59:07.750Z,92
2017-01-09T08:00:16.735Z,96
2017-01-09T08:01:27.048Z,96
2017-01-09T08:02:36.122Z,92
2017-01-09T08:03:45.116Z,96
2017-01-09T08:04:54.122Z,100
2017-01-09T08:06:03.098Z,104
2017-01-09T08:07:12.066Z,104
2017-01-09T08:08:21.042Z,104
2017-01-09T08:09:30.029Z,104
2017-01-09T08:10:38.998Z,116
2017-01-09T08:11:49.487Z,116
2017-01-09T08:12:58.459Z,120
2017-01-09T08:14:07.419Z,120
2017-01-09T08:15:16.416Z,120
2017-01-09T08:16:25.501Z,128
2017-01-09T08:17:36.752Z,128
2017-01-09T08:18:46.778Z,132
2017-01-09T08:19:56.333Z,132
2017-01-09T08:21:05.372Z,136
2017-01-09T08:22:14.373Z,136
2017-01-09T08:23:23.366Z,140
2017-01-09T08:24:32.349Z,144
2017-01-09T08:25:41.338Z,152
2017-01-09T08:26:50.307Z,152
2017-01-09T08:27:59.283Z,152
2017-01-09T08:29:08.311Z,152
2017-01-09T08:30:17.316Z,160
2017-01-09T08:31:26.293Z,164
2017-01-09T08:32:35.268Z,168
2017-01-09T08:33:44.239Z,172
2017-01-09T08:34:53.208Z,176
2017-01-09T08:36:02.245Z,180
2017-01-09T08:37:11.220Z,180
2017-01-09T08:38:20.194Z,176
2017-01-09T08:39:29.179Z,172
2017-01-09T08:40:38.164Z,176
2017-01-09T08:41:47.143Z,176
2017-01-09T08:42:56.148Z,172
2017-01-09T08:44:05.150Z,176
2017-01-09T08:45:14.116Z,184
2017-01-09T08:46:23.121Z,184
2017-01-09T08:47:32.103Z,192
2017-01-09T08:48:41.080Z,192
2017-01-09T08:49:50.070Z,196
2017-01-09T08:50:59.045Z,192
2017-01-09T08:52:08.013Z,196
2017-01-09T08:53:17.039Z,200
2017-01-09T08:54:26.052Z,204
2017-01-09T08:55:35.019Z,208
2017-01-09T08:56:44.023Z,212
2017-01-09T08:57:52.994Z,216
2017-01-09T08:59:01.967Z,228
2017-01-09T09:00:10.958Z,244
2017-01-09T09:01:19.939Z,256
2017-01-09T09:02:28.910Z,264
2017-01-09T09:03:37.878Z,272
2017-01-09T09:04:46.864Z,280
2017-01-09T09:05:55.840Z,288
2017-01-09T09:07:04.818Z,300
2017-01-09T09:08:13.792Z,312
2017-01-09T09:09:22.791Z,324
2017-01-09T09:10:31.776Z,332
2017-01-09T09:11:40.765Z,328
2017-01-09T09:12:49.749Z,324
2017-01-09T09:13:58.716Z,320
2017-01-09T09:15:07.691Z,312
2017-01-09T09:16:16.685Z,308
2017-01-09T09:17:25.667Z,308
2017-01-09T09:18:34.658Z,308
2017-01-09T09:19:43.624Z,312
2017-01-09T09:20:52.592Z,312
2017-01-09T09:22:01.569Z,312
2017-01-09T09:23:10.557Z,308
2017-01-09T09:24:19.523Z,300
2017-01-09T09:25:28.506Z,300
2017-01-09T09:26:37.471Z,296
2017-01-09T09:27:46.444Z,300
2017-01-09T09:28:55.415Z,308
2017-01-09T09:30:04.387Z,308
2017-01-09T09:31:13.383Z,296
2017-01-09T09:32:22.376Z,284
2017-01-09T09:33:31.353Z,284
2017-01-09T09:34:40.330Z,284
2017-01-09T09:35:49.300Z,288
2017-01-09T09:36:58.276Z,272
2017-01-09T09:38:07.250Z,272
2017-01-09T09:39:16.225Z,272
2017-01-09T09:40:25.193Z,272
2017-01-09T09:41:34.175Z,268
2017-01-09T09:42:43.161Z,284
2017-01-09T09:43:52.122Z,288
2017-01-09T09:45:01.090Z,296
2017-01-09T09:46:10.062Z,308
2017-01-09T09:47:19.048Z,312
2017-01-09T09:48:28.016Z,316
2017-01-09T09:49:36.997Z,320
2017-01-09T09:50:45.962Z,312
2017-01-09T09:51:54.936Z,312
2017-01-09T09:53:03.915Z,308
2017-01-09T09:54:12.909Z,312
2017-01-09T09:55:21.900Z,324
2017-01-09T09:56:30.866Z,332
2017-01-09T09:57:39.863Z,332
2017-01-09T09:58:48.845Z,340
2017-01-09T09:59:57.823Z,344
2017-01-09T10:01:06.787Z,356
2017-01-09T10:02:15.766Z,368
2017-01-09T10:03:24.744Z,380
2017-01-09T10:04:33.718Z,388
2017-01-09T10:05:42.699Z,404
2017-01-09T10:06:51.687Z,412
2017-01-09T10:08:00.644Z,420
2017-01-09T10:09:09.632Z,416
2017-01-09T10:10:18.593Z,400
2017-01-09T10:11:27.571Z,436
2017-01-09T10:12:36.547Z,448
2017-01-09T10:13:45.518Z,452
2017-01-09T10:14:54.907Z,456
2017-01-09T10:16:03.879Z,452
2017-01-09T10:17:12.856Z,452
2017-01-09T10:18:21.830Z,452
2017-01-09T10:19:30.815Z,468
2017-01-09T10:20:39.786Z,472
2017-01-09T10:21:48.759Z,468
2017-01-09T10:22:57.742Z,452
2017-01-09T10:24:06.725Z,456
2017-01-09T10:25:15.698Z,448
2017-01-09T10:26:24.678Z,452
2017-01-09T10:27:33.656Z,464
2017-01-09T10:28:42.630Z,456
2017-01-09T10:29:51.600Z,444
2017-01-09T10:31:00.577Z,440
2017-01-09T10:32:09.974Z,448
2017-01-09T10:33:18.957Z,452
2017-01-09T10:34:27.937Z,440
2017-01-09T10:35:36.900Z,432
2017-01-09T10:36:45.879Z,448
2017-01-09T10:37:54.854Z,456
2017-01-09T10:39:03.829Z,452
2017-01-09T10:40:12.822Z,456
2017-01-09T10:41:21.793Z,452
2017-01-09T10:42:30.897Z,448
2017-01-09T10:43:39.961Z,432
2017-01-09T10:44:48.946Z,424
2017-01-09T10:45:57.937Z,420
2017-01-09T10:47:06.919Z,428
2017-01-09T10:48:15.899Z,424
2017-01-09T10:49:25.002Z,412
2017-01-09T10:50:33.993Z,404
2017-01-09T10:51:43.085Z,400
2017-01-09T10:52:52.065Z,396
2017-01-09T10:54:01.034Z,400
2017-01-09T10:55:10.025Z,404
2017-01-09T10:56:18.998Z,396
2017-01-09T10:57:27.972Z,408
2017-01-09T10:58:36.945Z,420
2017-01-09T10:59:45.905Z,428
2017-01-09T11:00:54.882Z,428
2017-01-09T11:02:03.863Z,424
2017-01-09T11:03:12.823Z,400
2017-01-09T11:04:21.812Z,384
2017-01-09T11:05:30.783Z,384
2017-01-09T11:06:39.766Z,404
2017-01-09T11:07:48.734Z,412
2017-01-09T11:08:57.725Z,400
2017-01-09T11:10:06.717Z,392
2017-01-09T11:11:15.717Z,384
2017-01-09T11:12:24.701Z,392
2017-01-09T11:13:33.675Z,392
2017-01-09T11:14:42.676Z,396
2017-01-09T11:15:51.654Z,408
2017-01-09T11:17:00.634Z,428
2017-01-09T11:18:09.601Z,432
2017-01-09T11:19:18.578Z,456
2017-01-09T11:20:27.567Z,480
2017-01-09T11:21:36.539Z,488
2017-01-09T11:22:45.522Z,492
2017-01-09T11:23:54.489Z,500
2017-01-09T11:25:03.471Z,500
2017-01-09T11:26:12.464Z,504
2017-01-09T11:27:21.852Z,504
2017-01-09T11:28:30.828Z,512
2017-01-09T11:29:39.804Z,524
2017-01-09T11:30:48.778Z,528
2017-01-09T11:31:57.770Z,528
2017-01-09T11:33:06.743Z,516
2017-01-09T11:34:15.725Z,508
2017-01-09T11:35:24.729Z,504
2017-01-09T11:36:33.703Z,500
2017-01-09T11:37:42.697Z,484
2017-01-09T11:38:51.682Z,464
2017-01-09T11:40:00.692Z,468
2017-01-09T11:41:09.654Z,472
2017-01-09T11:42:18.636Z,476
2017-01-09T11:43:27.620Z,472
2017-01-09T11:44:36.602Z,472
2017-01-09T11:45:45.593Z,476
2017-01-09T11:46:54.554Z,460
2017-01-09T11:48:03.531Z,452
2017-01-09T11:49:12.500Z,476
2017-01-09T11:50:21.486Z,488
2017-01-09T11:51:31.507Z,488
2017-01-09T11:52:40.495Z,488
2017-01-09T11:53:49.470Z,480
2017-01-09T11:54:58.441Z,488
2017-01-09T11:56:07.424Z,492
2017-01-09T11:57:16.419Z,488
2017-01-09T11:58:25.381Z,488
2017-01-09T11:59:34.366Z,472
2017-01-09T12:00:43.333Z,476
2017-01-09T12:01:52.311Z,480
2017-01-09T12:03:01.292Z,464
2017-01-09T12:04:10.274Z,452
2017-01-09T12:05:19.259Z,456
2017-01-09T12:06:29.518Z,448
2017-01-09T12:07:38.494Z,436
2017-01-09T12:08:47.905Z,440
2017-01-09T12:09:56.884Z,432
2017-01-09T12:11:05.860Z,424
2017-01-09T12:12:14.833Z,408
2017-01-09T12:13:23.816Z,384
2017-01-09T12:14:32.787Z,380
2017-01-09T12:15:41.765Z,396
2017-01-09T12:16:50.741Z,408
2017-01-09T12:17:59.729Z,408
2017-01-09T12:19:08.697Z,412
2017-01-09T12:20:17.667Z,416
2017-01-09T12:21:28.156Z,424
2017-01-09T12:22:37.119Z,420
2017-01-09T12:23:46.098Z,416
2017-01-09T12:24:55.086Z,396
2017-01-09T12:26:04.051Z,376
2017-01-09T12:27:13.032Z,376
2017-01-09T12:28:22.012Z,372
2017-01-09T12:29:31.031Z,368
2017-01-09T12:30:40.033Z,364
2017-01-09T12:31:49.005Z,356
2017-01-09T12:32:57.987Z,336
2017-01-09T12:34:06.965Z,340
2017-01-09T12:35:15.969Z,332
2017-01-09T12:36:24.956Z,328
2017-01-09T12:37:33.945Z,316
2017-01-09T12:38:42.921Z,312
2017-01-09T12:39:51.932Z,312
2017-01-09T12:41:02.107Z,304
2017-01-09T12:42:11.185Z,292
2017-01-09T12:43:20.325Z,272
2017-01-09T12:44:29.299Z,264
2017-01-09T12:45:38.289Z,256
2017-01-09T12:46:47.264Z,252
2017-01-09T12:47:56.276Z,256
2017-01-09T12:49:05.268Z,256
2017-01-09T12:50:14.254Z,264
2017-01-09T12:51:23.235Z,276
2017-01-09T12:52:32.219Z,280
2017-01-09T12:53:41.205Z,268
2017-01-09T12:54:50.190Z,276
2017-01-09T12:55:59.160Z,268
2017-01-09T12:57:08.142Z,268
2017-01-09T12:58:17.111Z,280
2017-01-09T12:59:26.160Z,304
2017-01-09T13:00:35.136Z,288
2017-01-09T13:01:44.129Z,296
2017-01-09T13:02:53.164Z,292
2017-01-09T13:04:02.159Z,284
2017-01-09T13:05:11.176Z,280
2017-01-09T13:06:20.208Z,268
2017-01-09T13:07:29.182Z,268
2017-01-09T13:08:38.162Z,268
2017-01-09T13:09:47.192Z,276
2017-01-09T13:10:56.182Z,296
2017-01-09T13:12:05.156Z,308
2017-01-09T13:13:14.165Z,304
2017-01-09T13:14:23.132Z,296
2017-01-09T13:15:32.113Z,276
2017-01-09T13:16:41.111Z,288
2017-01-09T13:17:50.088Z,276
2017-01-09T13:18:59.065Z,276
2017-01-09T13:20:08.046Z,260
2017-01-09T13:21:17.019Z,256
2017-01-09T13:22:26.000Z,264
2017-01-09T13:23:34.990Z,256
2017-01-09T13:24:44.033Z,256
2017-01-09T13:25:53.019Z,260
2017-01-09T13:27:01.994Z,244
2017-01-09T13:28:10.993Z,236
2017-01-09T13:29:19.970Z,240
2017-01-09T13:30:28.947Z,252
2017-01-09T13:31:37.912Z,236
2017-01-09T13:32:46.887Z,240
2017-01-09T13:33:55.870Z,240
2017-01-09T13:35:04.849Z,240
2017-01-09T13:36:13.841Z,244
2017-01-09T13:37:22.831Z,256
2017-01-09T13:38:31.816Z,248
2017-01-09T13:39:40.794Z,240
2017-01-09T13:40:49.780Z,236
2017-01-09T13:41:58.751Z,244
2017-01-09T13:43:07.744Z,248
2017-01-09T13:44:16.728Z,244
2017-01-09T13:45:25.700Z,232
2017-01-09T13:46:34.689Z,220
2017-01-09T13:47:43.685Z,220
2017-01-09T13:48:52.660Z,232
2017-01-09T13:50:01.637Z,216
2017-01-09T13:51:10.610Z,212
2017-01-09T13:52:19.593Z,224
2017-01-09T13:53:28.568Z,220
2017-01-09T13:54:37.546Z,220
2017-01-09T13:55:46.520Z,208
2017-01-09T13:56:55.496Z,204
2017-01-09T13:58:04.470Z,208
2017-01-09T13:59:13.446Z,208
2017-01-09T14:00:22.427Z,188
2017-01-09T14:01:31.400Z,172
2017-01-09T14:02:40.374Z,164
2017-01-09T14:03:49.358Z,164
2017-01-09T14:04:58.338Z,160
2017-01-09T14:06:07.320Z,152
2017-01-09T14:07:16.304Z,132
2017-01-09T14:08:25.295Z,116
2017-01-09T14:09:34.272Z,112
2017-01-09T14:10:43.335Z,120
2017-01-09T14:11:52.354Z,128
2017-01-09T14:13:01.415Z,144
2017-01-09T14:14:12.588Z,144
2017-01-09T14:15:22.104Z,132
2017-01-09T14:16:31.124Z,128
2017-01-09T14:17:40.115Z,112
2017-01-09T14:18:49.098Z,120
2017-01-09T14:19:58.067Z,116
2017-01-09T14:21:07.038Z,116
2017-01-09T14:22:16.020Z,112
2017-01-09T14:23:25.012Z,100
2017-01-09T14:24:34.427Z,92
2017-01-09T14:25:43.407Z,84
2017-01-09T14:26:52.389Z,84
2017-01-09T14:28:01.367Z,76
2017-01-09T14:29:10.358Z,68
2017-01-09T14:30:19.336Z,68
2017-01-09T14:31:28.327Z,68
2017-01-09T14:32:37.302Z,68
2017-01-09T14:33:46.287Z,64
2017-01-09T14:34:55.256Z,64
2017-01-09T14:36:04.248Z,60
2017-01-09T14:37:13.216Z,60
2017-01-09T14:38:22.189Z,60
2017-01-09T14:39:31.172Z,52
2017-01-09T14:40:40.151Z,44
2017-01-09T14:41:49.121Z,48
2017-01-09T14:42:58.113Z,48
2017-01-09T14:44:07.104Z,48
2017-01-09T14:45:16.088Z,48
2017-01-09T14:46:25.062Z,48
2017-01-09T14:47:34.044Z,44
2017-01-09T14:48:43.028Z,40
2017-01-09T14:49:52.108Z,40
2017-01-09T14:51:01.498Z,40
2017-01-09T14:52:10.472Z,36
2017-01-09T14:53:19.457Z,32
2017-01-09T14:54:28.487Z,32
2017-01-09T14:55:37.465Z,32
2017-01-09T14:56:46.484Z,32
2017-01-09T14:57:55.465Z,28
2017-01-09T14:59:04.432Z,28
2017-01-09T15:00:13.418Z,28
2017-01-09T15:01:22.410Z,28
2017-01-09T15:02:31.385Z,24
2017-01-09T15:03:40.371Z,24
2017-01-09T15:04:49.366Z,20
2017-01-09T15:05:58.341Z,20
2017-01-09T15:07:07.326Z,20
2017-01-09T15:08:16.302Z,20
2017-01-09T15:09:25.273Z,16
2017-01-09T15:10:34.242Z,12
2017-01-09T15:11:43.233Z,12
2017-01-09T15:12:52.205Z,8
2017-01-09T15:14:01.202Z,12
2017-01-09T15:15:10.186Z,12
2017-01-09T15:16:19.150Z,12
2017-01-09T15:17:28.141Z,8
2017-01-09T15:18:37.115Z,8
2017-01-09T15:19:46.101Z,8
2017-01-09T15:20:55.079Z,8
2017-01-09T15:22:04.050Z,4
2017-01-09T15:23:13.029Z,8
2017-01-09T15:24:22.010Z,4
2017-01-09T15:25:30.991Z,8
2017-01-09T15:26:39.992Z,4
2017-01-09T15:27:48.983Z,4
2017-01-09T15:28:57.995Z,4
2017-01-09T15:30:06.983Z,0
2017-01-09T15:31:15.966Z,4
2017-01-09T15:32:24.932Z,4
2017-01-09T15:33:33.931Z,4
2017-01-09T15:34:42.937Z,4
2017-01-09T15:35:51.904Z,4
2017-01-09T15:37:00.891Z,0
2017-01-09T15:38:09.885Z,0
2017-01-09T15:39:18.857Z,0
2017-01-09T15:40:27.836Z,0
2017-01-09T15:41:36.806Z,0
2017-01-09T15:42:45.787Z,0
2017-01-09T15:43:54.774Z,0
2017-01-09T15:45:03.751Z,0
2017-01-09T15:46:12.731Z,0
2017-01-09T15:47:21.716Z,0
2017-01-09T15:48:30.683Z,0
2017-01-09T15:49:39.692Z,0
2017-01-09T15:50:48.677Z,0
2017-01-09T15:51:57.657Z,0
2017-01-09T15:53:06.629Z,0
2017-01-09T15:54:15.624Z,0
2017-01-09T15:55:24.601Z,0
2017-01-09T15:56:33.582Z,0
2017-01-09T15:57:42.564Z,0
2017-01-09T15:58:51.555Z,0
2017-01-09T16:00:00.914Z,0
2017-01-09T16:01:10.006Z,0
2017-01-09T16:02:18.978Z,0
2017-01-09T16:03:27.954Z,0
2017-01-09T16:04:36.944Z,0
2017-01-09T16:05:45.945Z,4
2017-01-09T16:06:54.989Z,4
2017-01-09T16:08:03.968Z,4
2017-01-09T16:09:12.955Z,0
2017-01-09T16:10:21.942Z,0
2017-01-09T16:11:30.914Z,0
2017-01-09T16:12:39.903Z,4
2017-01-09T16:13:48.882Z,4
2017-01-09T16:14:57.862Z,0
2017-01-09T16:16:06.849Z,4
2017-01-09T16:17:15.839Z,4
2017-01-09T16:18:24.818Z,4
2017-01-09T16:19:33.808Z,4
2017-01-09T16:20:42.934Z,4
2017-01-09T16:21:51.919Z,4
2017-01-09T16:23:00.890Z,4
2017-01-09T16:24:09.874Z,4
2017-01-09T16:25:18.848Z,4
2017-01-09T16:26:27.837Z,4
2017-01-09T16:27:36.809Z,4
2017-01-09T16:28:45.793Z,4